createdAt,value
2022-12-15T00:00:56.698Z,33.23
2022-12-15T00:03:48.788Z,32.17
2022-12-15T00:06:41.455Z,32.40
2022-12-15T00:09:31.829Z,32.87
2022-12-15T00:12:25.125Z,34.13
2022-12-15T00:15:15.490Z,32.27
2022-12-15T00:18:05.854Z,34.00
2022-12-15T00:20:57.520Z,34.10
2022-12-15T00:23:48.018Z,34.53
2022-12-15T00:26:38.305Z,34.80
2022-12-15T00:29:28.560Z,34.93
2022-12-15T00:32:18.691Z,35.70
2022-12-15T00:35:09.018Z,35.73
2022-12-15T00:38:00.913Z,33.60
2022-12-15T00:40:33.932Z,32.43
2022-12-15T00:43:11.957Z,33.93
2022-12-15T00:46:02.519Z,34.00
2022-12-15T00:48:35.488Z,35.03
2022-12-15T00:51:07.762Z,33.13
2022-12-15T00:53:59.918Z,34.60
2022-12-15T00:56:50.288Z,35.47
2022-12-15T00:59:40.179Z,33.67
2022-12-15T01:02:30.286Z,34.53
2022-12-15T01:05:20.884Z,34.13
2022-12-15T01:08:13.548Z,36.80
2022-12-15T01:11:05.241Z,33.07
2022-12-15T01:13:55.583Z,34.93
2022-12-15T01:16:48.719Z,32.80
2022-12-15T01:19:38.868Z,34.57
2022-12-15T01:22:14.324Z,33.40
2022-12-15T01:24:47.267Z,32.67
2022-12-15T01:27:21.438Z,32.67
2022-12-15T01:29:54.230Z,33.57
2022-12-15T01:32:27.631Z,33.70
2022-12-15T01:35:00.594Z,31.10
2022-12-15T01:37:33.740Z,32.57
2022-12-15T01:40:25.234Z,32.10
2022-12-15T01:42:59.517Z,32.00
2022-12-15T01:45:50.768Z,35.20
2022-12-15T01:48:26.197Z,31.77
2022-12-15T01:51:01.620Z,32.37
2022-12-15T01:53:36.137Z,32.47
2022-12-15T01:56:09.815Z,30.27
2022-12-15T01:58:48.558Z,29.67
2022-12-15T02:01:21.442Z,30.13
2022-12-15T02:03:54.467Z,29.17
2022-12-15T02:06:29.814Z,30.60
2022-12-15T02:09:02.588Z,30.07
2022-12-15T02:11:53.915Z,30.17
2022-12-15T02:14:33.990Z,30.43
2022-12-15T02:17:11.412Z,29.73
2022-12-15T02:19:54.736Z,31.27
2022-12-15T02:22:34.838Z,29.23
2022-12-15T02:25:17.558Z,29.57
2022-12-15T02:27:59.722Z,28.97
2022-12-15T02:31:12.508Z,30.50
2022-12-15T02:33:47.733Z,28.43
2022-12-15T02:36:26.961Z,29.53
2022-12-15T02:38:59.940Z,29.10
2022-12-15T02:41:35.185Z,31.07
2022-12-15T02:44:11.207Z,29.87
2022-12-15T02:46:55.832Z,26.27
2022-12-15T02:49:32.467Z,29.27
2022-12-15T02:52:13.278Z,27.30
2022-12-15T02:55:01.819Z,28.20
2022-12-15T02:57:39.478Z,27.10
2022-12-15T03:00:13.641Z,24.10
2022-12-15T03:02:49.907Z,26.03
2022-12-15T03:05:25.319Z,26.87
2022-12-15T03:07:58.559Z,27.73
2022-12-15T03:10:33.342Z,24.97
2022-12-15T03:13:06.552Z,26.97
2022-12-15T03:15:39.438Z,26.23
2022-12-15T03:18:13.547Z,25.20
2022-12-15T03:20:46.440Z,25.93
2022-12-15T03:23:19.432Z,25.97
2022-12-15T03:25:52.258Z,27.07
2022-12-15T03:28:25.061Z,27.10
2022-12-15T03:31:00.328Z,27.40
2022-12-15T03:33:35.302Z,23.90
2022-12-15T03:36:08.955Z,27.27
2022-12-15T03:38:41.706Z,25.27
2022-12-15T03:41:15.066Z,25.23
2022-12-15T03:43:49.694Z,25.40
2022-12-15T03:46:22.827Z,26.03
2022-12-15T03:48:59.233Z,25.07
2022-12-15T03:51:32.264Z,27.17
2022-12-15T03:54:07.438Z,25.57
2022-12-15T03:56:40.462Z,25.13
2022-12-15T03:59:18.147Z,25.80
2022-12-15T04:01:51.305Z,25.27
2022-12-15T04:04:25.489Z,25.43
2022-12-15T04:06:58.432Z,26.40
2022-12-15T04:09:34.444Z,25.47
2022-12-15T04:12:09.794Z,26.87
2022-12-15T04:14:42.737Z,27.27
2022-12-15T04:17:15.728Z,26.40
2022-12-15T04:20:07.734Z,26.47
2022-12-15T04:22:42.024Z,27.17
2022-12-15T04:25:35.199Z,27.13
2022-12-15T04:28:25.737Z,26.83
2022-12-15T04:31:16.853Z,26.63
2022-12-15T04:34:09.777Z,27.13
2022-12-15T04:37:05.752Z,25.63
2022-12-15T04:39:57.040Z,25.60
2022-12-15T04:42:48.239Z,25.33
2022-12-15T04:45:40.088Z,25.77
2022-12-15T04:48:30.385Z,25.20
2022-12-15T04:51:22.704Z,25.17
2022-12-15T04:54:15.652Z,27.33
2022-12-15T04:57:05.974Z,26.17
2022-12-15T04:59:56.178Z,24.00
2022-12-15T05:02:46.519Z,19.50
2022-12-15T05:05:39.965Z,23.40
2022-12-15T05:08:30.333Z,24.37
2022-12-15T05:11:21.884Z,25.67
2022-12-15T05:14:12.149Z,23.73
2022-12-15T05:17:02.347Z,25.20
2022-12-15T05:19:52.792Z,24.30
2022-12-15T05:22:43.044Z,24.93
2022-12-15T05:25:33.348Z,26.30
2022-12-15T05:28:28.229Z,25.23
2022-12-15T05:31:19.279Z,27.07
2022-12-15T05:33:52.098Z,23.27
2022-12-15T05:36:24.976Z,26.07
2022-12-15T05:38:59.373Z,27.10
2022-12-15T05:41:32.108Z,23.00
2022-12-15T05:44:06.464Z,25.70
2022-12-15T05:46:40.265Z,25.73
2022-12-15T05:49:14.916Z,23.90
2022-12-15T05:51:49.810Z,25.93
2022-12-15T05:54:22.569Z,24.53
2022-12-15T05:56:55.406Z,22.77
2022-12-15T05:59:29.438Z,23.33
2022-12-15T06:02:02.405Z,26.47
2022-12-15T06:04:35.147Z,24.90
2022-12-15T06:07:07.996Z,26.07
2022-12-15T06:09:46.636Z,27.17
2022-12-15T06:12:21.923Z,27.13
2022-12-15T06:14:56.296Z,23.97
2022-12-15T06:17:29.312Z,26.60
2022-12-15T06:20:02.272Z,26.93
2022-12-15T06:22:35.025Z,25.77
2022-12-15T06:25:09.859Z,24.80
2022-12-15T06:27:42.968Z,23.20
2022-12-15T06:30:19.133Z,22.10
2022-12-15T06:32:51.941Z,23.17
2022-12-15T06:35:24.864Z,23.67
2022-12-15T06:37:57.693Z,23.77
2022-12-15T06:40:37.670Z,24.40
2022-12-15T06:43:11.043Z,22.43
2022-12-15T06:45:51.786Z,24.50
2022-12-15T06:48:27.524Z,24.13
2022-12-15T06:51:03.618Z,24.07
2022-12-15T06:53:37.804Z,24.07
2022-12-15T06:56:18.312Z,24.77
2022-12-15T06:58:52.004Z,24.17
2022-12-15T07:01:26.885Z,23.67
2022-12-15T07:04:01.610Z,23.33
2022-12-15T07:06:36.753Z,23.80
2022-12-15T07:09:13.195Z,23.87
2022-12-15T07:11:49.209Z,23.03
2022-12-15T07:14:23.185Z,25.60
2022-12-15T07:16:59.897Z,24.63
2022-12-15T07:19:32.845Z,21.93
2022-12-15T07:22:05.754Z,22.70
2022-12-15T07:24:38.744Z,22.90
2022-12-15T07:27:11.468Z,24.43
2022-12-15T07:29:44.526Z,22.90
2022-12-15T07:32:19.283Z,22.33
2022-12-15T07:34:52.219Z,22.87
2022-12-15T07:37:24.878Z,24.60
2022-12-15T07:39:57.693Z,21.83
2022-12-15T07:42:30.732Z,23.60
2022-12-15T07:45:03.944Z,23.67
2022-12-15T07:47:38.044Z,24.20
2022-12-15T07:50:11.240Z,22.97
2022-12-15T07:52:44.468Z,23.20
2022-12-15T07:55:27.702Z,22.53
2022-12-15T07:58:10.408Z,22.80
2022-12-15T08:00:48.611Z,21.73
2022-12-15T08:03:27.032Z,23.20
2022-12-15T08:06:03.994Z,21.77
2022-12-15T08:08:37.285Z,21.73
2022-12-15T08:11:11.048Z,19.40
2022-12-15T08:16:38.820Z,19.00
2022-12-15T08:19:16.392Z,21.57
2022-12-15T08:21:50.912Z,21.90
2022-12-15T08:24:23.700Z,20.93
2022-12-15T08:27:05.819Z,22.27
2022-12-15T08:29:53.851Z,21.73
2022-12-15T08:32:26.953Z,21.53
2022-12-15T08:35:01.069Z,22.87
2022-12-15T08:37:35.118Z,21.77
2022-12-15T08:40:08.626Z,20.73
2022-12-15T08:42:41.536Z,20.37
2022-12-15T08:45:14.304Z,21.57
2022-12-15T08:47:47.093Z,21.27
2022-12-15T08:50:21.337Z,20.00
2022-12-15T08:53:21.305Z,21.53
2022-12-15T08:55:46.953Z,20.50
2022-12-15T08:58:19.852Z,23.20
2022-12-15T09:00:52.724Z,21.30
2022-12-15T09:03:25.674Z,20.83
2022-12-15T09:06:08.294Z,22.10
2022-12-15T09:08:41.272Z,21.73
2022-12-15T09:11:16.043Z,21.93
2022-12-15T09:13:48.724Z,22.67
2022-12-15T09:16:22.438Z,20.67
2022-12-15T09:18:56.155Z,20.60
2022-12-15T09:21:30.863Z,21.20
2022-12-15T09:24:07.067Z,21.97
2022-12-15T09:26:40.818Z,21.70
2022-12-15T09:29:14.436Z,21.57
2022-12-15T09:31:47.096Z,20.37
2022-12-15T09:34:19.891Z,20.83
2022-12-15T09:36:54.483Z,21.43
2022-12-15T09:39:27.469Z,21.30
2022-12-15T09:42:01.396Z,21.50
2022-12-15T09:44:34.410Z,21.30
2022-12-15T09:47:14.318Z,21.30
2022-12-15T09:49:52.487Z,21.80
2022-12-15T09:52:31.032Z,22.23
2022-12-15T09:55:04.461Z,21.07
2022-12-15T09:57:38.072Z,22.70
2022-12-15T10:00:16.090Z,21.77
2022-12-15T10:03:03.857Z,22.07
2022-12-15T10:06:07.421Z,22.23
2022-12-15T10:08:34.739Z,22.77
2022-12-15T10:11:17.476Z,22.63
2022-12-15T10:13:53.528Z,21.47
2022-12-15T10:16:31.817Z,24.17
2022-12-15T10:19:09.328Z,25.97
2022-12-15T10:21:42.669Z,22.57
2022-12-15T10:27:20.957Z,20.90
2022-12-15T10:29:57.082Z,20.97
2022-12-15T10:32:39.315Z,18.73
2022-12-15T10:35:17.256Z,20.63
2022-12-15T10:37:51.530Z,21.57
2022-12-15T10:40:50.581Z,22.03
2022-12-15T10:43:35.419Z,22.70
2022-12-15T10:46:14.519Z,23.37
2022-12-15T10:48:48.733Z,23.57
2022-12-15T10:51:30.741Z,22.83
2022-12-15T10:54:13.018Z,23.03
2022-12-15T10:56:50.348Z,21.07
2022-12-15T10:59:26.119Z,21.47
2022-12-15T11:02:23.805Z,19.77
2022-12-15T11:04:57.466Z,20.30
2022-12-15T11:07:34.192Z,22.07
2022-12-15T11:10:16.054Z,20.90
2022-12-15T11:13:02.511Z,19.43
2022-12-15T11:15:40.970Z,20.70
2022-12-15T11:18:22.759Z,22.90
2022-12-15T11:21:01.277Z,24.57
2022-12-15T11:23:39.833Z,26.13
2022-12-15T11:26:17.295Z,22.97
2022-12-15T11:28:53.876Z,23.13
2022-12-15T11:31:38.908Z,23.03
2022-12-15T11:34:13.561Z,21.67
2022-12-15T11:36:54.720Z,20.80
2022-12-15T11:39:35.695Z,21.27
2022-12-15T11:42:14.013Z,21.37
2022-12-15T11:44:56.678Z,24.90
2022-12-15T11:47:39.567Z,23.13
2022-12-15T11:50:22.057Z,19.57
2022-12-15T11:53:01.355Z,21.67
2022-12-15T11:55:41.649Z,20.83
2022-12-15T11:58:22.874Z,18.63
2022-12-15T12:01:01.034Z,20.40
2022-12-15T12:03:38.568Z,30.10
2022-12-15T12:06:13.373Z,23.93
2022-12-15T12:08:51.143Z,21.20
2022-12-15T12:11:28.381Z,21.47
2022-12-15T12:14:11.995Z,19.87
2022-12-15T12:16:48.669Z,20.27
2022-12-15T12:19:25.603Z,19.13
2022-12-15T12:22:04.898Z,19.53
2022-12-15T12:24:40.089Z,18.87
2022-12-15T12:27:19.977Z,20.43
2022-12-15T12:29:57.571Z,20.47
2022-12-15T12:32:34.939Z,20.77
2022-12-15T12:35:30.876Z,18.83
2022-12-15T12:38:09.440Z,17.07
2022-12-15T12:40:51.799Z,19.27
2022-12-15T12:43:31.830Z,19.57
2022-12-15T12:46:07.315Z,18.47
2022-12-15T12:48:42.220Z,19.87
2022-12-15T12:51:25.498Z,19.87
2022-12-15T12:53:58.824Z,25.37
2022-12-15T12:56:33.191Z,24.77
2022-12-15T12:59:08.886Z,23.80
2022-12-15T13:01:42.243Z,17.00
2022-12-15T13:04:35.398Z,19.90
2022-12-15T13:07:29.183Z,16.40
2022-12-15T13:10:14.773Z,18.37
2022-12-15T13:12:51.856Z,17.33
2022-12-15T13:15:33.385Z,17.70
2022-12-15T13:18:09.241Z,16.27
2022-12-15T13:20:42.848Z,17.10
2022-12-15T13:23:36.491Z,18.30
2022-12-15T13:26:13.540Z,17.13
2022-12-15T13:28:50.941Z,18.73
2022-12-15T13:31:35.499Z,18.43
2022-12-15T13:34:23.020Z,18.70
2022-12-15T13:37:00.323Z,19.00
2022-12-15T13:39:36.035Z,18.87
2022-12-15T13:42:37.383Z,18.77
2022-12-15T13:45:30.863Z,30.30
2022-12-15T13:48:09.036Z,23.03
2022-12-15T13:50:45.640Z,27.03
2022-12-15T13:53:26.714Z,20.57
2022-12-15T13:56:07.913Z,19.50
2022-12-15T13:58:43.146Z,21.00
2022-12-15T14:01:20.595Z,22.10
2022-12-15T14:04:03.262Z,22.57
2022-12-15T14:06:37.659Z,22.93
2022-12-15T14:09:14.285Z,25.73
2022-12-15T14:11:54.193Z,21.90
2022-12-15T14:14:30.056Z,23.37
2022-12-15T14:17:13.710Z,21.83
2022-12-15T14:19:50.931Z,21.93
2022-12-15T14:22:29.671Z,21.87
2022-12-15T14:25:04.529Z,22.33
2022-12-15T14:27:38.741Z,22.00
2022-12-15T14:30:13.072Z,23.00
2022-12-15T14:32:48.816Z,21.30
2022-12-15T14:35:25.870Z,23.27
2022-12-15T14:38:00.815Z,21.57
2022-12-15T14:40:37.194Z,21.33
2022-12-15T14:43:15.376Z,21.43
2022-12-15T14:45:52.135Z,22.10
2022-12-15T14:48:45.080Z,23.47
2022-12-15T14:51:20.374Z,21.63
2022-12-15T14:53:54.463Z,21.17
2022-12-15T14:56:31.179Z,25.00
2022-12-15T14:59:20.783Z,23.03
2022-12-15T15:01:58.772Z,23.43
2022-12-15T15:03:09.636Z,22.67
2022-12-15T15:04:32.917Z,22.60
2022-12-15T15:07:09.547Z,23.43
2022-12-15T15:09:42.966Z,22.23
2022-12-15T15:12:17.273Z,23.40
2022-12-15T15:14:57.017Z,22.47
2022-12-15T15:17:34.917Z,22.37
2022-12-15T15:20:09.412Z,23.40
2022-12-15T15:22:43.401Z,23.60
2022-12-15T15:25:27.355Z,23.63
2022-12-15T15:28:04.143Z,21.40
2022-12-15T15:30:43.857Z,23.90
2022-12-15T15:33:17.374Z,23.47
2022-12-15T15:35:51.756Z,24.77
2022-12-15T15:38:27.032Z,35.47
2022-12-15T15:41:01.239Z,25.17
2022-12-15T15:43:34.085Z,26.77
2022-12-15T15:46:11.919Z,23.13
2022-12-15T15:48:49.580Z,24.03
2022-12-15T15:51:22.563Z,23.43
2022-12-15T15:53:56.173Z,23.80
2022-12-15T15:56:31.135Z,23.00
2022-12-15T15:59:10.881Z,23.50
2022-12-15T16:01:46.515Z,24.17
2022-12-15T16:04:19.876Z,21.87
2022-12-15T16:06:53.431Z,22.67
2022-12-15T16:09:26.516Z,22.60
2022-12-15T16:11:59.842Z,22.63
2022-12-15T16:14:32.765Z,22.97
2022-12-15T16:17:09.553Z,22.80
2022-12-15T16:19:42.431Z,25.70
2022-12-15T16:22:17.916Z,25.80
2022-12-15T16:24:52.994Z,26.37
2022-12-15T16:27:26.416Z,25.80
2022-12-15T16:30:01.129Z,25.30
2022-12-15T16:32:35.984Z,26.53
2022-12-15T16:35:09.143Z,25.33
2022-12-15T16:37:46.476Z,24.53
2022-12-15T16:40:22.620Z,25.57
2022-12-15T16:42:56.325Z,24.77
2022-12-15T16:45:30.411Z,23.47
2022-12-15T16:48:05.241Z,23.57
2022-12-15T16:50:39.527Z,23.30
2022-12-15T16:53:18.743Z,24.17
2022-12-15T16:55:54.514Z,23.50
2022-12-15T16:58:31.812Z,25.37
2022-12-15T17:01:04.963Z,23.90
2022-12-15T17:03:39.402Z,23.90
2022-12-15T17:06:13.762Z,22.93
2022-12-15T17:08:48.848Z,25.60
2022-12-15T17:11:32.074Z,41.90
2022-12-15T17:14:05.416Z,27.77
2022-12-15T17:16:38.202Z,24.17
2022-12-15T17:19:16.314Z,24.70
2022-12-15T17:21:57.077Z,26.50
2022-12-15T17:24:30.054Z,26.53
2022-12-15T17:27:03.270Z,30.33
2022-12-15T17:29:36.204Z,30.07
2022-12-15T17:32:12.337Z,27.07
2022-12-15T17:34:46.851Z,25.10
2022-12-15T17:37:19.785Z,24.73
2022-12-15T17:39:53.933Z,23.67
2022-12-15T17:42:27.241Z,23.77
2022-12-15T17:45:00.494Z,30.20
2022-12-15T17:47:33.756Z,31.10
2022-12-15T17:50:08.757Z,28.73
2022-12-15T17:52:42.359Z,24.37
2022-12-15T17:55:20.063Z,26.00
2022-12-15T17:57:55.303Z,24.23
2022-12-15T18:00:29.259Z,25.27
2022-12-15T18:03:02.916Z,33.87
2022-12-15T18:05:37.443Z,34.40
2022-12-15T18:08:13.730Z,24.60
2022-12-15T18:10:47.626Z,23.40
2022-12-15T18:13:21.559Z,23.43
2022-12-15T18:15:55.751Z,23.70
2022-12-15T18:18:28.749Z,25.97
2022-12-15T18:21:03.475Z,25.40
2022-12-15T18:23:37.461Z,25.37
2022-12-15T18:26:12.782Z,26.00
2022-12-15T18:28:45.903Z,25.60
2022-12-15T18:31:25.826Z,27.63
2022-12-15T18:34:04.721Z,29.60
2022-12-15T18:36:39.879Z,26.80
2022-12-15T18:39:17.259Z,26.77
2022-12-15T18:41:50.800Z,23.63
2022-12-15T18:44:28.289Z,24.40
2022-12-15T18:47:01.276Z,25.27
2022-12-15T18:49:33.956Z,24.70
2022-12-15T18:52:11.766Z,25.20
2022-12-15T18:54:44.920Z,28.40
2022-12-15T18:57:30.681Z,29.17
2022-12-15T19:00:16.936Z,28.10
2022-12-15T19:02:50.006Z,38.27
2022-12-15T19:05:29.629Z,28.57
2022-12-15T19:08:09.954Z,29.93
2022-12-15T19:10:48.240Z,23.50
2022-12-15T19:13:21.967Z,24.47
2022-12-15T19:15:56.701Z,25.57
2022-12-15T19:18:47.240Z,25.33
2022-12-15T19:21:38.398Z,24.40
2022-12-15T19:24:14.254Z,23.70
2022-12-15T19:26:47.094Z,24.80
2022-12-15T19:29:21.322Z,23.60
2022-12-15T19:31:55.039Z,23.83
2022-12-15T19:34:28.232Z,23.80
2022-12-15T19:37:01.545Z,23.83
2022-12-15T19:39:37.054Z,24.00
2022-12-15T19:42:13.609Z,23.77
2022-12-15T19:44:46.411Z,23.93
2022-12-15T19:47:19.437Z,25.03
2022-12-15T19:49:52.882Z,23.60
2022-12-15T19:52:28.429Z,22.97
2022-12-15T19:55:02.727Z,24.07
2022-12-15T19:57:35.520Z,23.40
2022-12-15T20:00:15.480Z,24.63
2022-12-15T20:02:51.256Z,22.13
2022-12-15T20:05:25.285Z,23.87
2022-12-15T20:07:58.213Z,23.50
2022-12-15T20:10:32.933Z,24.07
2022-12-15T20:13:07.579Z,23.63
2022-12-15T20:15:40.555Z,26.63
2022-12-15T20:18:16.681Z,25.70
2022-12-15T20:20:50.868Z,24.20
2022-12-15T20:23:26.881Z,24.20
2022-12-15T20:26:03.506Z,24.53
2022-12-15T20:28:36.436Z,27.90
2022-12-15T20:31:13.667Z,26.47
2022-12-15T20:33:47.168Z,35.07
2022-12-15T20:36:21.073Z,28.00
2022-12-15T20:38:54.540Z,28.63
2022-12-15T20:41:30.376Z,28.83
2022-12-15T20:44:03.758Z,26.43
2022-12-15T20:46:41.562Z,26.90
2022-12-15T20:49:16.206Z,25.50
2022-12-15T20:51:50.649Z,25.63
2022-12-15T20:54:23.682Z,24.23
2022-12-15T20:56:57.805Z,30.60
2022-12-15T20:59:33.004Z,29.33
2022-12-15T21:02:14.979Z,29.27
2022-12-15T21:04:48.288Z,26.33
2022-12-15T21:07:21.326Z,27.47
2022-12-15T21:09:54.276Z,25.40
2022-12-15T21:12:29.292Z,26.07
2022-12-15T21:15:02.158Z,25.90
2022-12-15T21:17:38.696Z,23.93
2022-12-15T21:20:14.649Z,23.77
2022-12-15T21:22:47.495Z,23.63
2022-12-15T21:25:29.079Z,23.17
2022-12-15T21:28:03.673Z,23.27
2022-12-15T21:30:40.612Z,22.77
2022-12-15T21:33:13.465Z,37.80
2022-12-15T21:35:47.149Z,27.70
2022-12-15T21:38:29.931Z,30.30
2022-12-15T21:41:04.091Z,27.27
2022-12-15T21:43:38.560Z,26.07
2022-12-15T21:46:14.323Z,25.77
2022-12-15T21:49:05.047Z,25.17
2022-12-15T21:51:38.750Z,27.10
2022-12-15T21:54:16.696Z,23.83
2022-12-15T21:56:50.025Z,24.77
2022-12-15T21:59:28.124Z,23.43
2022-12-15T22:02:01.442Z,24.73
2022-12-15T22:04:35.270Z,25.57
2022-12-15T22:07:11.427Z,25.53
2022-12-15T22:09:44.327Z,26.40
2022-12-15T22:12:19.614Z,25.80
2022-12-15T22:14:53.976Z,24.57
2022-12-15T22:17:26.657Z,25.03
2022-12-15T22:19:59.634Z,27.20
2022-12-15T22:22:32.733Z,24.80
2022-12-15T22:25:06.239Z,26.40
2022-12-15T22:27:39.128Z,24.93
2022-12-15T22:30:17.151Z,25.07
2022-12-15T22:32:50.817Z,25.03
2022-12-15T22:35:26.211Z,25.37
2022-12-15T22:38:00.070Z,25.17
2022-12-15T22:40:36.256Z,25.57
2022-12-15T22:43:17.832Z,26.70
2022-12-15T22:45:54.434Z,24.10
2022-12-15T22:48:31.399Z,24.67
2022-12-15T22:51:06.166Z,26.00
2022-12-15T22:53:39.208Z,26.87
2022-12-15T22:56:18.493Z,27.23
2022-12-15T22:58:52.339Z,27.60
2022-12-15T23:01:27.970Z,29.37
2022-12-15T23:04:03.185Z,27.83
2022-12-15T23:06:36.027Z,28.27
2022-12-15T23:09:08.871Z,27.77
2022-12-15T23:11:44.027Z,28.47
2022-12-15T23:14:18.326Z,29.73
2022-12-15T23:16:52.058Z,28.40
2022-12-15T23:19:26.761Z,28.73
2022-12-15T23:22:02.904Z,28.03
2022-12-15T23:24:39.320Z,29.07
2022-12-15T23:27:13.762Z,29.17
2022-12-15T23:29:47.138Z,28.60
2022-12-15T23:32:21.836Z,29.37
2022-12-15T23:34:55.336Z,30.93
2022-12-15T23:37:28.786Z,31.80
2022-12-15T23:40:01.943Z,31.00
2022-12-15T23:42:40.290Z,29.00
2022-12-15T23:45:14.692Z,31.40
2022-12-15T23:47:49.800Z,28.43
2022-12-15T23:50:25.396Z,31.03
2022-12-15T23:53:04.139Z,31.37
2022-12-15T23:55:38.225Z,30.17
2022-12-15T23:58:11.756Z,31.20
